Time;durP1;ratioP1;P1;durP2;ratioP2;P2;SDS_P1;SDS_P2;PMS_P1;PMS_P2;Temp;Humidity;BMP_temperature;BMP_pressure;BME280_temperature;BME280_humidity;BME280_pressure;Samples;Min_cycle;Max_cycle;Signal;HPM_P1;HPM_P2
2021/07/16 00:01:59;;;;;;;2.90;2.45;;;;;;;16.97;100.00;100425.31;4995123;28;20131;-68
2021/07/16 00:04:43;;;;;;;2.38;2.17;;;;;;;16.91;100.00;100417.97;4981191;28;20411;-68
2021/07/16 00:07:27;;;;;;;6.18;2.60;;;;;;;16.86;100.00;100417.69;4994960;28;20053;-68
2021/07/16 00:10:15;;;;;;;4.18;2.47;;;;;;;16.83;100.00;100419.88;4995750;28;20133;-67
2021/07/16 00:12:59;;;;;;;3.33;2.40;;;;;;;16.73;100.00;100425.53;4995111;28;20092;-68
2021/07/16 00:15:43;;;;;;;4.70;2.78;;;;;;;16.70;100.00;100425.03;4995233;28;20136;-68
2021/07/16 00:18:27;;;;;;;5.63;2.50;;;;;;;16.61;100.00;100421.59;4981279;28;20510;-68
2021/07/16 00:21:11;;;;;;;2.58;2.33;;;;;;;16.55;100.00;100422.28;4994837;28;20530;-68
2021/07/16 00:23:55;;;;;;;6.32;2.78;;;;;;;16.54;100.00;100426.00;4981107;28;20053;-68
2021/07/16 00:26:39;;;;;;;3.47;2.50;;;;;;;16.52;100.00;100417.28;4995919;28;20042;-68
2021/07/16 00:29:28;;;;;;;6.60;2.78;;;;;;;16.46;100.00;100419.84;4994543;28;20100;-68
2021/07/16 00:32:12;;;;;;;5.80;2.75;;;;;;;16.42;100.00;100429.25;4980735;28;20045;-68
2021/07/16 00:34:55;;;;;;;4.53;2.80;;;;;;;16.35;100.00;100430.94;4980745;28;20041;-68
2021/07/16 00:37:39;;;;;;;3.80;2.53;;;;;;;16.30;100.00;100442.25;4994138;28;20180;-68
2021/07/16 00:40:25;;;;;;;4.95;2.47;;;;;;;16.26;100.00;100443.63;4980619;28;20049;-68
2021/07/16 00:43:09;;;;;;;3.97;2.65;;;;;;;16.21;100.00;100446.00;4995169;28;20463;-67
2021/07/16 00:45:53;;;;;;;3.10;2.40;;;;;;;16.21;100.00;100446.00;4994231;28;20053;-67
2021/07/16 00:48:37;;;;;;;8.93;2.92;;;;;;;16.20;100.00;100452.41;4980404;28;20048;-68
2021/07/16 00:51:21;;;;;;;4.65;2.72;;;;;;;16.18;100.00;100459.78;4993984;28;20057;-67
2021/07/16 00:54:04;;;;;;;4.13;2.72;;;;;;;16.16;100.00;100461.81;4980358;28;20053;-67
2021/07/16 00:56:48;;;;;;;10.27;2.85;;;;;;;16.10;100.00;100459.00;4995339;28;20050;-68
2021/07/16 00:59:33;;;;;;;4.88;2.90;;;;;;;16.08;100.00;100466.41;4993699;28;20052;-67
2021/07/16 01:02:17;;;;;;;5.65;2.70;;;;;;;16.06;100.00;100463.06;4993960;28;20049;-68
2021/07/16 01:05:02;;;;;;;5.35;2.80;;;;;;;16.09;100.00;100465.38;4994672;28;20101;-68
2021/07/16 01:07:48;;;;;;;5.75;3.08;;;;;;;16.01;100.00;100468.09;4995002;28;20120;-66
2021/07/16 01:10:33;;;;;;;4.95;2.83;;;;;;;15.96;100.00;100470.50;4979913;28;20447;-68
2021/07/16 01:13:17;;;;;;;3.28;2.65;;;;;;;15.92;100.00;100470.00;4980111;28;20089;-67
2021/07/16 01:16:01;;;;;;;2.83;2.53;;;;;;;15.94;100.00;100473.34;4980010;28;20046;-68
2021/07/16 01:18:48;;;;;;;3.33;2.75;;;;;;;15.97;100.00;100481.06;4993423;28;20491;-68
2021/07/16 01:21:33;;;;;;;4.45;2.80;;;;;;;16.03;100.00;100480.38;4966630;28;20061;-68
2021/07/16 01:24:17;;;;;;;4.60;2.90;;;;;;;16.09;100.00;100485.03;4979845;28;20077;-67
2021/07/16 01:27:01;;;;;;;7.30;2.72;;;;;;;16.13;100.00;100477.47;4993279;28;20053;-66
2021/07/16 01:29:46;;;;;;;7.30;3.00;;;;;;;16.11;100.00;100483.03;4994202;28;20439;-67
2021/07/16 01:32:30;;;;;;;3.20;2.90;;;;;;;16.13;100.00;100478.31;4993497;28;20061;-67
2021/07/16 01:35:15;;;;;;;4.80;2.55;;;;;;;16.17;100.00;100478.81;4979687;28;20522;-68
2021/07/16 01:37:59;;;;;;;3.05;2.60;;;;;;;16.18;100.00;100486.69;5003682;22;20153;-67
2021/07/16 01:40:44;;;;;;;2.78;2.50;;;;;;;16.21;100.00;100489.06;4979460;28;20108;-64
2021/07/16 01:43:28;;;;;;;5.13;2.83;;;;;;;16.19;100.00;100488.34;4994290;28;20049;-64
2021/07/16 01:46:12;;;;;;;4.72;2.80;;;;;;;16.19;100.00;100493.75;4979182;28;20045;-64
2021/07/16 01:48:56;;;;;;;4.38;2.63;;;;;;;16.16;100.00;100488.72;4994065;28;20111;-64
2021/07/16 01:51:42;;;;;;;7.53;2.92;;;;;;;16.13;100.00;100486.38;4994202;28;20052;-64
2021/07/16 01:54:26;;;;;;;2.67;2.45;;;;;;;16.14;100.00;100485.38;4979366;28;20505;-64
2021/07/16 01:57:10;;;;;;;3.70;2.97;;;;;;;16.16;100.00;100490.59;4979385;28;20049;-62
2021/07/16 01:59:54;;;;;;;5.72;2.60;;;;;;;16.18;100.00;100488.56;4993790;28;20068;-64
2021/07/16 02:02:46;;;;;;;2.88;2.42;;;;;;;16.20;100.00;100492.75;4979301;28;20526;-64
2021/07/16 02:05:30;;;;;;;5.35;2.90;;;;;;;16.20;100.00;100492.75;4978905;28;20045;-64
2021/07/16 02:08:20;;;;;;;5.00;2.72;;;;;;;16.22;100.00;100493.41;4978939;28;20081;-64
2021/07/16 02:11:04;;;;;;;5.75;2.50;;;;;;;16.22;100.00;100493.41;4979618;28;20089;-64
2021/07/16 02:13:49;;;;;;;7.05;3.13;;;;;;;16.25;100.00;100490.38;4979192;28;20096;-64
2021/07/16 02:16:33;;;;;;;3.05;2.58;;;;;;;16.26;100.00;100497.41;4993671;28;20046;-64
2021/07/16 02:19:17;;;;;;;6.15;2.83;;;;;;;16.27;100.00;100495.59;4993670;28;20492;-64
2021/07/16 02:22:06;;;;;;;3.22;2.55;;;;;;;16.27;100.00;100499.09;4965812;28;20459;-64
2021/07/16 02:24:50;;;;;;;4.55;2.55;;;;;;;16.27;100.00;100499.09;4979026;28;20404;-64
2021/07/16 02:27:34;;;;;;;6.50;2.80;;;;;;;16.26;100.00;100492.03;4965534;28;20459;-64
2021/07/16 02:30:18;;;;;;;4.13;2.70;;;;;;;16.24;100.00;100488.69;4965204;28;20415;-64
2021/07/16 02:33:03;;;;;;;4.97;2.72;;;;;;;16.24;100.00;100483.31;4979073;28;20124;-64
2021/07/16 02:35:46;;;;;;;8.73;2.90;;;;;;;16.24;100.00;100483.31;4993714;28;20041;-64
2021/07/16 02:38:31;;;;;;;4.60;2.78;;;;;;;16.25;100.00;100478.75;4978669;28;20057;-64
2021/07/16 02:41:14;;;;;;;5.00;3.20;;;;;;;16.24;100.00;100475.25;4982830;28;20108;-63
2021/07/16 02:43:58;;;;;;;4.85;2.78;;;;;;;16.21;100.00;100472.91;4982461;28;20519;-64
2021/07/16 02:46:42;;;;;;;8.40;2.83;;;;;;;16.19;100.00;100484.84;4997422;28;20049;-64
2021/07/16 02:49:26;;;;;;;7.15;2.80;;;;;;;16.20;100.00;100482.00;4982275;28;20069;-65
2021/07/16 02:52:10;;;;;;;2.90;2.60;;;;;;;16.18;100.00;100473.25;4997097;28;20053;-64
2021/07/16 02:54:54;;;;;;;3.67;2.75;;;;;;;16.16;100.00;100475.28;4997314;28;20050;-65
2021/07/16 02:57:38;;;;;;;7.25;2.75;;;;;;;16.14;100.00;100477.31;4982492;28;20056;-64
2021/07/16 03:00:24;;;;;;;7.03;2.50;;;;;;;16.10;100.00;100475.97;4982243;28;20097;-64
2021/07/16 03:03:09;;;;;;;3.20;2.65;;;;;;;16.06;100.00;100485.41;4982439;28;20084;-64
2021/07/16 03:05:56;;;;;;;3.08;2.65;;;;;;;16.05;100.00;100478.34;4997071;28;20118;-64
2021/07/16 03:08:41;;;;;;;3.20;2.88;;;;;;;16.03;100.00;100483.06;4997175;28;20466;-64
2021/07/16 03:11:25;;;;;;;2.92;2.42;;;;;;;16.00;100.00;100490.63;4982491;28;20519;-64
2021/07/16 03:14:09;;;;;;;4.32;2.20;;;;;;;15.97;100.00;100501.75;4996696;28;20049;-64
2021/07/16 03:16:53;;;;;;;5.90;2.80;;;;;;;15.94;100.00;100496.69;4968497;28;20049;-64
2021/07/16 03:19:37;;;;;;;3.97;2.63;;;;;;;15.90;100.00;100506.13;4996801;28;20088;-64
2021/07/16 03:22:21;;;;;;;2.70;2.50;;;;;;;15.87;100.00;100501.09;4981925;28;20049;-65
2021/07/16 03:25:07;;;;;;;9.57;2.90;;;;;;;15.82;100.00;100492.69;4981896;28;20120;-64
2021/07/16 03:27:52;;;;;;;7.10;3.30;;;;;;;15.81;100.00;100491.88;4982010;28;20109;-64
2021/07/16 03:30:37;;;;;;;8.60;3.10;;;;;;;15.84;100.00;100494.22;4982064;28;20144;-65
2021/07/16 03:33:21;;;;;;;12.10;3.55;;;;;;;15.74;100.00;100507.00;4981824;28;20201;-64
2021/07/16 03:36:06;;;;;;;4.88;3.00;;;;;;;15.65;100.00;100505.34;4996561;28;20130;-64
2021/07/16 03:38:52;;;;;;;5.45;2.88;;;;;;;15.61;100.00;100503.16;4981593;28;20085;-64
2021/07/16 03:41:37;;;;;;;3.85;3.08;;;;;;;15.56;100.00;100502.84;4968595;28;20456;-64
2021/07/16 03:44:21;;;;;;;3.42;3.13;;;;;;;15.51;100.00;100497.13;4996323;28;20419;-64
2021/07/16 03:47:11;;;;;;;2.90;2.70;;;;;;;15.49;100.00;100509.09;4996399;28;20137;-64
2021/07/16 03:49:55;;;;;;;5.28;3.28;;;;;;;15.46;100.00;100512.09;4981338;28;20049;-64
2021/07/16 03:52:40;;;;;;;5.93;3.13;;;;;;;15.43;100.00;100510.56;4995961;28;20129;-65
2021/07/16 03:55:23;;;;;;;7.53;3.40;;;;;;;15.38;100.00;100504.88;4981458;28;20518;-64
2021/07/16 03:58:07;;;;;;;4.65;3.05;;;;;;;15.36;100.00;100506.03;4981149;28;20132;-66
2021/07/16 04:00:51;;;;;;;4.85;3.60;;;;;;;15.34;100.00;100521.50;4996110;28;20049;-64
2021/07/16 04:03:35;;;;;;;5.22;3.67;;;;;;;15.33;100.00;100522.50;4981322;28;20073;-64
2021/07/16 04:06:20;;;;;;;6.70;3.75;;;;;;;15.37;100.00;100526.53;4967498;28;20053;-64
2021/07/16 04:09:26;;;;;;;7.75;4.07;;;;;;;15.42;100.00;100518.81;4995745;28;20534;-64
2021/07/16 04:12:14;;;;;;;9.48;5.05;;;;;;;15.48;100.00;100518.97;4995931;28;20100;-64
2021/07/16 04:14:58;;;;;;;8.57;4.28;;;;;;;15.55;100.00;100519.13;4995745;28;20046;-64
2021/07/16 04:17:42;;;;;;;10.48;4.93;;;;;;;15.58;100.00;100522.31;4967361;28;20161;-64
2021/07/16 04:20:28;;;;;;;9.55;4.95;;;;;;;15.63;100.00;100520.81;4996054;28;20116;-64
2021/07/16 04:23:12;;;;;;;8.85;4.32;;;;;;;15.69;100.00;100522.81;4980960;28;20104;-64
2021/07/16 04:25:56;;;;;;;7.30;4.50;;;;;;;15.74;100.00;100533.06;4995301;28;20064;-65
2021/07/16 04:28:39;;;;;;;9.38;4.25;;;;;;;15.79;100.00;100525.31;4995691;28;20403;-64
2021/07/16 04:31:23;;;;;;;10.88;4.25;;;;;;;15.85;100.00;100536.22;4981010;28;20045;-64
2021/07/16 04:34:07;;;;;;;;;;;;;;;15.90;100.00;100538.38;4995898;28;20125;-65
2021/07/16 04:36:51;;;;;;;6.72;4.03;;;;;;;15.97;100.00;100542.09;4966993;28;20387;-64
2021/07/16 04:39:36;;;;;;;8.40;4.80;;;;;;;16.04;100.00;100534.97;4994926;28;20189;-63
2021/07/16 04:42:21;;;;;;;7.80;4.90;;;;;;;16.11;100.00;100546.72;4995090;28;20049;-65
2021/07/16 04:45:06;;;;;;;5.72;3.90;;;;;;;16.20;100.00;100551.94;4980464;28;20507;-65
2021/07/16 04:47:50;;;;;;;7.88;4.85;;;;;;;16.32;100.00;100555.91;4967115;28;20069;-64
2021/07/16 04:50:34;;;;;;;7.78;5.78;;;;;;;16.47;100.00;100559.56;4966605;28;20056;-65
2021/07/16 04:53:18;;;;;;;7.05;5.00;;;;;;;16.59;100.00;100551.97;4995135;28;20446;-65
2021/07/16 04:56:02;;;;;;;6.60;5.22;;;;;;;16.69;100.00;100558.78;4966438;28;20097;-64
2021/07/16 04:58:46;;;;;;;7.78;5.70;;;;;;;16.74;100.00;100556.44;4966535;28;20053;-65
2021/07/16 05:01:30;;;;;;;7.50;5.65;;;;;;;16.87;100.00;100554.00;4980246;28;20522;-65
2021/07/16 05:04:14;;;;;;;9.00;5.00;;;;;;;16.89;100.00;100553.81;4980161;28;20507;-65
2021/07/16 05:06:58;;;;;;;6.85;4.75;;;;;;;16.97;100.00;100546.53;4994866;28;20045;-64
2021/07/16 05:09:42;;;;;;;7.13;5.70;;;;;;;17.02;100.00;100560.31;4980071;28;20093;-64
2021/07/16 05:12:26;;;;;;;8.30;6.22;;;;;;;17.07;100.00;100548.97;4994753;28;20050;-65
2021/07/16 05:15:11;;;;;;;14.70;6.25;;;;;;;17.07;100.00;100549.81;4980016;28;20515;-63
2021/07/16 05:17:55;;;;;;;10.63;6.57;;;;;;;17.08;100.00;100543.41;4966199;28;20052;-65
2021/07/16 05:20:39;;;;;;;12.05;6.18;;;;;;;17.11;100.00;100548.44;4979594;28;20053;-65
2021/07/16 05:23:23;;;;;;;14.95;6.47;;;;;;;17.09;100.00;100550.47;4979889;28;20514;-65
2021/07/16 05:26:06;;;;;;;12.93;6.55;;;;;;;17.21;100.00;100553.59;4994391;28;20077;-65
2021/07/16 05:28:50;;;;;;;9.13;6.05;;;;;;;17.28;100.00;100557.25;4994395;28;20108;-65
2021/07/16 05:31:34;;;;;;;8.90;6.47;;;;;;;17.27;100.00;100555.56;4979548;28;20053;-65
2021/07/16 05:34:18;;;;;;;9.70;5.80;;;;;;;17.31;100.00;100568.50;4994406;28;20514;-65
2021/07/16 05:37:02;;;;;;;11.25;5.82;;;;;;;17.29;100.00;100569.72;4979652;28;20053;-64
2021/07/16 05:39:46;;;;;;;7.45;5.95;;;;;;;17.30;100.00;100569.50;4979173;28;20112;-64
2021/07/16 05:42:30;;;;;;;6.97;5.47;;;;;;;17.35;100.00;100566.28;4994214;28;20068;-65
2021/07/16 05:45:14;;;;;;;7.68;5.20;;;;;;;17.36;100.00;100568.00;4994085;28;20101;-65
2021/07/16 05:48:00;;;;;;;6.07;5.45;;;;;;;17.43;100.00;100569.81;4979112;28;20101;-66
2021/07/16 05:50:46;;;;;;;4.88;4.25;;;;;;;17.48;100.00;100572.78;4979714;28;20093;-65
2021/07/16 05:53:31;;;;;;;4.10;3.75;;;;;;;17.54;100.00;100582.84;4979714;28;20418;-64
2021/07/16 05:56:14;;;;;;;5.32;4.07;;;;;;;17.72;100.00;100582.53;4994080;28;20054;-65
2021/07/16 05:58:58;;;;;;;3.85;3.55;;;;;;;17.93;100.00;100583.47;4993855;28;20065;-65
2021/07/16 06:01:42;;;;;;;4.00;3.60;;;;;;;18.19;100.00;100593.84;4979320;28;20511;-65
2021/07/16 06:04:26;;;;;;;4.57;3.50;;;;;;;18.42;100.00;100584.66;4979278;28;20046;-65
2021/07/16 06:07:10;;;;;;;3.20;2.97;;;;;;;18.69;100.00;100594.81;4993751;28;20096;-64
2021/07/16 06:09:54;;;;;;;3.78;2.63;;;;;;;18.96;100.00;100596.78;4979227;28;20128;-65
2021/07/16 06:12:38;;;;;;;3.45;2.85;;;;;;;19.18;100.00;100591.28;4978969;28;20069;-65
2021/07/16 06:15:22;;;;;;;5.47;2.95;;;;;;;19.31;100.00;100591.41;4981987;28;20045;-65
2021/07/16 06:18:06;;;;;;;3.50;3.20;;;;;;;19.25;100.00;100594.03;4983139;28;20053;-65
2021/07/16 06:20:50;;;;;;;3.58;3.28;;;;;;;19.31;100.00;100590.59;4997913;28;20595;-65
2021/07/16 06:23:34;;;;;;;5.75;3.25;;;;;;;19.39;100.00;100595.88;4983118;28;20415;-63
2021/07/16 06:26:19;;;;;;;3.63;3.30;;;;;;;19.39;100.00;100598.56;4983039;28;20057;-65
2021/07/16 06:29:04;;;;;;;5.90;3.20;;;;;;;19.42;100.00;100595.47;4982959;28;20133;-64
2021/07/16 06:31:48;;;;;;;3.78;3.00;;;;;;;19.43;100.00;100605.25;4997703;28;20188;-65
2021/07/16 06:34:32;;;;;;;3.42;2.95;;;;;;;19.49;100.00;100612.63;4982749;28;20045;-65
2021/07/16 06:37:16;;;;;;;2.97;2.70;;;;;;;19.49;100.00;100612.63;4982889;28;20045;-64
2021/07/16 06:40:01;;;;;;;4.95;3.60;;;;;;;19.61;100.00;100609.19;4997206;28;20470;-65
2021/07/16 06:42:45;;;;;;;5.25;3.42;;;;;;;19.67;100.00;100615.69;4997485;28;20080;-65
2021/07/16 06:45:29;;;;;;;3.70;3.30;;;;;;;19.84;100.00;100622.50;4982594;28;20129;-64
2021/07/16 06:48:13;;;;;;;6.63;3.50;;;;;;;20.03;100.00;100616.41;4982619;28;20092;-65
2021/07/16 06:50:57;;;;;;;4.45;3.90;;;;;;;20.21;100.00;100619.50;4997417;28;20050;-65
2021/07/16 06:53:41;;;;;;;;;;;;;;;20.38;100.00;100626.28;4982775;28;20099;-63
2021/07/16 06:56:25;;;;;;;7.32;4.55;;;;;;;20.62;100.00;100634.75;4968891;28;20414;-63
2021/07/16 06:59:12;;;;;;;;;;;;;;;20.95;100.00;100626.84;4983171;28;20140;-65
2021/07/16 07:01:56;;;;;;;4.88;3.30;;;;;;;21.31;99.93;100631.78;4996977;28;20428;-65
2021/07/16 07:04:40;;;;;;;5.35;4.38;;;;;;;21.55;98.11;100633.06;4982368;28;20466;-65
2021/07/16 07:07:24;;;;;;;8.68;5.05;;;;;;;21.79;94.37;100630.63;4997156;28;20129;-65
2021/07/16 07:10:09;;;;;;;6.70;4.95;;;;;;;21.86;92.43;100636.06;4982291;28;20041;-65
2021/07/16 07:12:53;;;;;;;8.50;5.20;;;;;;;22.01;90.73;100637.53;4997019;28;20423;-65
2021/07/16 07:15:37;;;;;;;;;;;;;;;22.10;90.46;100638.16;4982365;28;20049;-65
2021/07/16 07:18:21;;;;;;;6.57;5.22;;;;;;;22.32;88.53;100648.56;4982144;28;19968;-65
2021/07/16 07:21:05;;;;;;;;;;;;;;;22.50;87.86;100640.66;4997303;28;20057;-65
2021/07/16 07:23:49;;;;;;;6.35;5.05;;;;;;;22.80;86.31;100650.00;4982028;28;19920;-65
2021/07/16 07:26:35;;;;;;;;;;;;;;;22.90;84.42;100644.94;4995660;28;20053;-65
2021/07/16 07:29:19;;;;;;;10.70;5.25;;;;;;;23.12;84.48;100646.31;4996593;28;19983;-65
2021/07/16 07:32:04;;;;;;;;;;;;;;;23.02;83.40;100645.94;4997083;28;20097;-65
2021/07/16 07:34:48;;;;;;;12.52;9.13;;;;;;;22.98;82.99;100647.41;4981790;28;19921;-65
2021/07/16 07:37:32;;;;;;;10.68;8.23;;;;;;;22.80;83.46;100657.31;4996558;28;20615;-65
2021/07/16 07:40:16;;;;;;;;;;;;;;;22.59;85.30;100644.81;5046295;23;20053;-66
2021/07/16 07:43:02;;;;;;;6.75;6.05;;;;;;;22.55;86.40;100654.44;5000919;28;20333;-66
2021/07/16 07:45:46;;;;;;;6.47;5.75;;;;;;;22.68;85.84;100648.13;5000863;28;20104;-66
2021/07/16 07:48:30;;;;;;;6.53;5.70;;;;;;;22.84;85.31;100648.50;5015973;28;20068;-66
2021/07/16 07:51:14;;;;;;;;;;;;;;;23.15;82.84;100651.38;4981788;28;20049;-67
2021/07/16 07:53:58;;;;;;;5.60;4.95;;;;;;;23.60;80.48;100644.84;4996240;28;20011;-66
2021/07/16 07:56:41;;;;;;;6.10;4.70;;;;;;;23.90;78.03;100648.63;4981476;28;20096;-66
2021/07/16 07:59:28;;;;;;;7.90;5.43;;;;;;;24.25;76.60;100647.06;4981622;28;20081;-66
2021/07/16 08:02:12;;;;;;;6.10;5.50;;;;;;;24.50;73.20;100646.00;4996146;28;20101;-66
2021/07/16 08:04:58;;;;;;;5.55;4.95;;;;;;;24.74;72.92;100644.31;4994992;28;20065;-66
2021/07/16 08:07:43;;;;;;;5.05;4.55;;;;;;;24.98;71.97;100649.69;4981122;28;20077;-66
2021/07/16 08:10:27;;;;;;;5.85;4.70;;;;;;;25.09;69.08;100642.63;4994497;28;20057;-66
2021/07/16 08:13:14;;;;;;;;;;;;;;;25.29;68.97;100648.69;4981335;28;20618;-66
2021/07/16 08:15:58;;;;;;;8.50;4.80;;;;;;;25.39;68.30;100652.56;4995560;28;19964;-67
2021/07/16 08:18:42;;;;;;;;;;;;;;;25.44;68.33;100649.13;4995933;28;20092;-66
2021/07/16 08:21:26;;;;;;;6.88;5.00;;;;;;;25.27;68.99;100651.66;4980647;28;19921;-63
2021/07/16 08:24:09;;;;;;;;;;;;;;;25.17;70.17;100651.34;4967691;28;20064;-66
2021/07/16 08:26:54;;;;;;;6.07;5.40;;;;;;;25.14;68.54;100649.06;4995694;28;19924;-67
2021/07/16 08:29:38;;;;;;;5.43;4.85;;;;;;;24.93;68.98;100648.72;4995232;28;20423;-67
2021/07/16 08:32:22;;;;;;;9.80;5.00;;;;;;;24.85;69.60;100651.75;4995579;28;20134;-67
2021/07/16 08:35:06;;;;;;;9.32;5.60;;;;;;;24.70;70.78;100646.66;4995260;28;20041;-66
2021/07/16 08:37:50;;;;;;;5.40;4.68;;;;;;;24.60;71.73;100659.16;4980581;28;20105;-67
2021/07/16 08:40:34;;;;;;;;;;;;;;;24.52;71.46;100645.78;4995368;28;20141;-66
2021/07/16 08:43:20;;;;;;;10.93;5.53;;;;;;;24.55;70.83;100648.06;4980372;28;20044;-67
2021/07/16 08:46:04;;;;;;;7.05;4.50;;;;;;;24.63;71.52;100647.78;4994790;28;20049;-67
2021/07/16 08:48:51;;;;;;;6.35;4.90;;;;;;;24.69;70.53;100646.91;4980322;28;20137;-67
2021/07/16 08:51:38;;;;;;;9.85;5.07;;;;;;;24.72;70.45;100646.44;4994901;28;20057;-66
2021/07/16 08:54:22;;;;;;;6.10;4.22;;;;;;;24.85;68.60;100646.28;4994868;28;20550;-67
2021/07/16 08:57:06;;;;;;;;;;;;;;;24.83;67.63;100648.41;4980655;28;20096;-66
2021/07/16 08:59:50;;;;;;;5.25;3.90;;;;;;;24.86;68.72;100643.34;4979987;28;19920;-65
2021/07/16 09:02:35;;;;;;;5.68;4.45;;;;;;;24.84;68.59;100650.06;4994721;28;20137;-67
2021/07/16 09:05:30;;;;;;;5.13;3.80;;;;;;;25.11;69.09;100645.97;4994793;28;20450;-66
2021/07/16 09:08:19;;;;;;;4.38;3.97;;;;;;;25.47;67.46;100649.50;4993546;28;20419;-66
2021/07/16 09:11:03;;;;;;;9.40;4.32;;;;;;;25.77;67.28;100652.22;4993862;28;20093;-66
2021/07/16 09:13:51;;;;;;;;;;;;;;;25.95;64.22;100649.44;4995152;28;20136;-67
2021/07/16 09:16:35;;;;;;;4.80;4.32;;;;;;;25.98;64.32;100655.28;4980005;28;20007;-65
2021/07/16 09:19:27;;;;;;;6.05;4.07;;;;;;;26.19;65.06;100653.88;4993367;28;20057;-67
2021/07/16 09:22:16;;;;;;;4.97;4.38;;;;;;;26.33;62.73;100649.88;4980048;28;20064;-67
2021/07/16 09:25:03;;;;;;;6.32;4.43;;;;;;;26.51;61.11;100647.88;4993519;28;20579;-67
2021/07/16 09:27:48;;;;;;;4.43;4.03;;;;;;;26.50;63.44;100653.53;4966059;28;20057;-66
2021/07/16 09:30:32;;;;;;;6.22;3.97;;;;;;;26.88;61.57;100651.16;4994198;28;20419;-67
2021/07/16 09:33:17;;;;;;;11.55;4.28;;;;;;;27.17;61.40;100645.50;4993683;28;20101;-67
2021/07/16 09:36:01;;;;;;;5.22;4.28;;;;;;;27.46;58.71;100650.78;4979303;28;20523;-67
2021/07/16 09:38:50;;;;;;;11.57;4.03;;;;;;;27.70;58.52;100646.84;4994139;28;20049;-67
2021/07/16 09:41:49;;;;;;;6.78;4.20;;;;;;;28.03;57.45;100646.91;4993344;28;20053;-67
2021/07/16 09:44:36;;;;;;;7.80;4.18;;;;;;;28.05;56.39;100654.91;4993887;28;20045;-67
2021/07/16 09:47:21;;;;;;;5.28;4.78;;;;;;;28.06;57.24;100656.56;4979299;28;20089;-67
2021/07/16 09:50:12;;;;;;;5.05;4.55;;;;;;;28.02;56.91;100655.41;4978858;28;20100;-67
2021/07/16 09:53:22;;;;;;;5.80;4.80;;;;;;;27.64;56.47;100658.78;4993186;28;20092;-67
2021/07/16 09:56:26;;;;;;;6.88;4.72;;;;;;;27.75;56.45;100654.38;4994052;28;20459;-67
2021/07/16 09:59:17;;;;;;;5.53;5.10;;;;;;;27.82;56.54;100655.88;4992999;28;20137;-67
2021/07/16 10:02:02;;;;;;;6.50;4.50;;;;;;;27.93;53.18;100657.72;4978972;28;20699;-66
2021/07/16 10:04:47;;;;;;;5.15;4.20;;;;;;;28.24;54.92;100653.59;4992672;28;20518;-67
2021/07/16 10:07:32;;;;;;;5.50;4.88;;;;;;;27.92;54.05;100658.78;4993084;28;20045;-67
2021/07/16 10:10:19;;;;;;;5.68;4.30;;;;;;;27.79;53.61;100653.63;4992963;28;20053;-64
2021/07/16 10:13:03;;;;;;;16.15;14.10;;;;;;;28.17;54.29;100659.25;4979174;28;20056;-67
2021/07/16 10:15:47;;;;;;;5.00;4.50;;;;;;;28.52;53.30;100661.75;4965414;28;20045;-67
2021/07/16 10:18:31;;;;;;;6.85;5.60;;;;;;;28.99;51.12;100658.34;4992669;28;20081;-67
2021/07/16 10:21:15;;;;;;;5.95;4.07;;;;;;;29.56;50.07;100653.31;4992899;28;20104;-67
2021/07/16 10:23:59;;;;;;;5.00;3.97;;;;;;;29.76;47.89;100650.75;4993827;28;20053;-66
2021/07/16 10:26:43;;;;;;;4.30;3.90;;;;;;;30.35;48.10;100656.81;4993741;28;20069;-67
2021/07/16 10:29:38;;;;;;;6.80;4.03;;;;;;;30.56;46.54;100657.78;4992548;28;20098;-67
2021/07/16 10:32:52;;;;;;;4.40;4.00;;;;;;;31.62;44.21;100643.44;4993520;28;20518;-67
2021/07/16 10:35:38;;;;;;;4.18;3.72;;;;;;;33.17;42.20;100647.81;4974348;28;20040;-67
2021/07/16 10:38:34;;;;;;;4.60;3.60;;;;;;;34.44;39.07;100647.56;4993544;28;20057;-67
2021/07/16 10:41:32;;;;;;;3.72;3.40;;;;;;;36.46;35.48;100642.66;4965385;28;20112;-67
2021/07/16 10:44:48;;;;;;;3.83;3.13;;;;;;;38.33;31.57;100644.72;4992466;28;20469;-65
2021/07/16 10:47:38;;;;;;;6.43;3.42;;;;;;;39.29;29.58;100658.56;4993653;28;20121;-67
2021/07/16 10:50:28;;;;;;;5.82;3.50;;;;;;;40.71;26.26;100637.72;4978672;28;20466;-67
2021/07/16 10:53:28;;;;;;;3.40;3.10;;;;;;;40.52;25.94;100643.66;4978834;28;20050;-66
2021/07/16 10:56:13;;;;;;;3.42;3.13;;;;;;;40.36;26.65;100645.34;4993603;28;20411;-67
2021/07/16 10:58:57;;;;;;;3.67;3.25;;;;;;;40.76;26.28;100649.53;4993527;28;20065;-67
2021/07/16 11:01:41;;;;;;;3.50;3.17;;;;;;;40.38;27.04;100654.19;4996612;28;20057;-67
2021/07/16 11:04:30;;;;;;;4.22;3.28;;;;;;;40.03;27.11;100647.00;4997250;28;20062;-66
2021/07/16 11:07:33;;;;;;;5.78;3.45;;;;;;;38.95;28.42;100652.00;4968821;28;20454;-67
2021/07/16 11:10:47;;;;;;;8.15;3.05;;;;;;;38.00;28.69;100651.72;4982324;28;20049;-66
2021/07/16 11:13:37;;;;;;;3.20;2.88;;;;;;;37.86;28.55;100656.44;4996762;28;20048;-67
2021/07/16 11:16:25;;;;;;;3.20;2.63;;;;;;;36.68;29.75;100656.72;4981882;28;20423;-66
2021/07/16 11:19:09;;;;;;;4.28;3.70;;;;;;;35.86;32.07;100654.75;4996547;28;20510;-66
2021/07/16 11:21:53;;;;;;;3.45;2.78;;;;;;;35.94;33.01;100656.00;4996519;28;20045;-67
2021/07/16 11:24:40;;;;;;;4.95;2.90;;;;;;;36.54;31.89;100655.81;4996625;28;20138;-67
2021/07/16 11:27:26;;;;;;;3.92;3.53;;;;;;;36.92;30.86;100662.91;4995793;28;20104;-66
2021/07/16 11:30:12;;;;;;;3.42;3.13;;;;;;;37.22;30.33;100662.34;4996536;28;20432;-66
2021/07/16 11:33:00;;;;;;;3.53;2.63;;;;;;;38.21;29.44;100648.09;4996771;28;20124;-66
2021/07/16 11:35:50;;;;;;;4.10;2.80;;;;;;;39.13;27.49;100653.72;4995490;28;20092;-66
2021/07/16 11:38:33;;;;;;;2.80;2.60;;;;;;;39.47;27.01;100649.06;4995948;28;20181;-66
2021/07/16 11:41:17;;;;;;;4.63;2.80;;;;;;;38.93;27.04;100648.72;4981498;28;20053;-66
2021/07/16 11:44:01;;;;;;;4.10;2.60;;;;;;;38.07;28.40;100640.94;4995985;28;20108;-66
2021/07/16 11:46:45;;;;;;;2.80;2.50;;;;;;;37.30;28.91;100644.91;4995840;28;20128;-66
2021/07/16 11:49:31;;;;;;;4.78;2.30;;;;;;;36.34;31.01;100642.34;4981073;28;20532;-66
2021/07/16 11:52:19;;;;;;;2.95;2.50;;;;;;;34.94;33.22;100649.84;4981272;28;20057;-66
2021/07/16 11:55:08;;;;;;;3.53;2.95;;;;;;;33.94;35.87;100650.72;4995196;28;20049;-66
2021/07/16 11:57:53;;;;;;;6.03;2.92;;;;;;;32.83;38.16;100650.69;4995825;28;20133;-66
2021/07/16 12:00:39;;;;;;;3.45;3.15;;;;;;;32.15;39.64;100648.53;4981254;28;20133;-66
2021/07/16 12:03:23;;;;;;;4.15;3.33;;;;;;;31.76;42.12;100661.19;4994811;28;20068;-66
2021/07/16 12:06:07;;;;;;;5.13;4.22;;;;;;;31.49;43.47;100649.50;4995999;28;20256;-66
2021/07/16 12:08:51;;;;;;;4.05;3.58;;;;;;;30.80;46.25;100662.66;4995614;28;20161;-66
2021/07/16 12:11:35;;;;;;;4.65;3.55;;;;;;;30.39;47.81;100665.38;4980838;28;20133;-67
2021/07/16 12:14:19;;;;;;;5.93;4.30;;;;;;;30.12;47.76;100651.66;4994745;28;20053;-67
2021/07/16 12:17:03;;;;;;;4.97;4.55;;;;;;;31.26;45.37;100649.97;4995799;28;20104;-66
2021/07/16 12:19:47;;;;;;;4.15;3.45;;;;;;;32.19;43.65;100644.91;4995679;28;20471;-66
2021/07/16 12:22:33;;;;;;;3.53;3.22;;;;;;;33.70;40.17;100641.47;4995613;28;20069;-66
2021/07/16 12:25:17;;;;;;;4.35;3.35;;;;;;;35.46;36.83;100641.44;4980665;28;20069;-66
2021/07/16 12:28:18;;;;;;;3.30;3.00;;;;;;;37.08;33.55;100650.41;4994693;28;20105;-66
2021/07/16 12:31:02;;;;;;;4.80;2.65;;;;;;;37.72;31.09;100639.00;4994601;28;20560;-66
2021/07/16 12:33:46;;;;;;;2.53;2.30;;;;;;;38.51;27.91;100632.59;4995254;28;20052;-66
2021/07/16 12:36:33;;;;;;;2.00;1.90;;;;;;;39.32;25.37;100632.78;4980674;28;20099;-66
2021/07/16 12:39:21;;;;;;;4.55;2.13;;;;;;;40.39;25.57;100627.91;4994883;28;20191;-66
2021/07/16 12:42:11;;;;;;;2.05;1.95;;;;;;;40.95;23.67;100624.81;4980515;28;20411;-66
2021/07/16 12:45:07;;;;;;;3.00;2.50;;;;;;;41.63;22.51;100621.59;4995151;28;20535;-66
2021/07/16 12:47:52;;;;;;;2.78;2.58;;;;;;;40.94;22.87;100625.97;4994235;28;20411;-66
2021/07/16 12:50:36;;;;;;;2.55;2.38;;;;;;;41.43;23.02;100614.00;4993942;28;20053;-66